createdAt,value
2022-08-03T00:01:56.841Z,16.20
2022-08-03T00:06:59.689Z,16.17
2022-08-03T00:12:02.717Z,16.14
2022-08-03T00:17:05.908Z,16.09
2022-08-03T00:22:08.685Z,16.04
2022-08-03T00:27:11.563Z,16.03
2022-08-03T00:32:19.467Z,16.04
2022-08-03T00:37:41.641Z,16.00
2022-08-03T00:42:48.743Z,15.96
2022-08-03T00:47:51.813Z,15.93
2022-08-03T00:52:57.339Z,15.92
2022-08-03T00:58:01.644Z,15.88
2022-08-03T01:03:05.921Z,15.84
2022-08-03T01:08:35.418Z,15.82
2022-08-03T01:14:03.566Z,15.81
2022-08-03T01:19:24.395Z,15.78
2022-08-03T01:24:55.165Z,15.76
2022-08-03T01:30:07.133Z,15.76
2022-08-03T01:35:16.665Z,15.74
2022-08-03T01:40:22.293Z,15.70
2022-08-03T01:45:26.898Z,15.67
2022-08-03T01:50:32.011Z,15.62
2022-08-03T01:55:36.780Z,15.59
2022-08-03T02:00:41.487Z,15.53
2022-08-03T02:05:46.374Z,15.47
2022-08-03T02:10:50.765Z,15.41
2022-08-03T02:15:54.872Z,15.39
2022-08-03T02:20:59.291Z,15.37
2022-08-03T02:26:07.524Z,15.38
2022-08-03T02:31:18.210Z,15.42
2022-08-03T02:36:25.494Z,15.45
2022-08-03T02:41:32.738Z,15.47
2022-08-03T02:46:45.630Z,15.50
2022-08-03T02:51:50.591Z,15.54
2022-08-03T02:56:56.197Z,15.57
2022-08-03T03:02:01.625Z,15.58
2022-08-03T03:07:05.356Z,15.60
2022-08-03T03:12:11.312Z,15.62
2022-08-03T03:17:17.093Z,15.64
2022-08-03T03:22:21.477Z,15.67
2022-08-03T03:27:24.568Z,15.72
2022-08-03T03:32:29.096Z,15.79
2022-08-03T03:37:31.995Z,15.87
2022-08-03T03:42:35.321Z,15.92
2022-08-03T03:47:38.377Z,15.97
2022-08-03T03:52:41.339Z,16.04
2022-08-03T03:57:44.694Z,16.12
2022-08-03T04:02:48.195Z,16.20
2022-08-03T04:08:17.541Z,16.26
2022-08-03T04:13:22.194Z,16.36
2022-08-03T04:18:27.858Z,16.44
2022-08-03T04:23:36.277Z,16.50
2022-08-03T04:28:43.058Z,16.54
2022-08-03T04:33:46.997Z,16.61
2022-08-03T04:39:03.851Z,16.69
2022-08-03T04:44:08.815Z,16.74
2022-08-03T04:49:12.334Z,16.82
2022-08-03T04:54:18.933Z,16.98
2022-08-03T04:59:21.741Z,17.21
2022-08-03T05:04:24.527Z,17.46
2022-08-03T05:09:50.066Z,17.72
2022-08-03T05:14:50.170Z,18.06
2022-08-03T05:19:53.057Z,18.34
2022-08-03T05:24:56.364Z,18.56
2022-08-03T05:30:30.764Z,18.77
2022-08-03T05:35:55.699Z,19.13
2022-08-03T05:40:46.985Z,19.93
2022-08-03T05:46:11.976Z,20.76
2022-08-03T05:51:16.032Z,21.56
2022-08-03T05:56:22.743Z,22.29
2022-08-03T06:01:25.698Z,23.00
2022-08-03T06:06:32.161Z,23.66
2022-08-03T06:11:35.516Z,24.26
2022-08-03T06:16:38.410Z,24.69
2022-08-03T06:21:41.355Z,24.92
2022-08-03T06:26:44.376Z,25.35
2022-08-03T06:31:47.265Z,25.65
2022-08-03T06:36:52.347Z,25.63
2022-08-03T06:41:55.651Z,27.17
2022-08-03T06:47:09.261Z,30.86
2022-08-03T06:52:13.235Z,32.19
2022-08-03T06:57:36.107Z,34.91
2022-08-03T07:02:40.107Z,36.29
2022-08-03T07:07:44.111Z,36.61
2022-08-03T07:12:52.975Z,36.36
2022-08-03T07:17:59.669Z,36.12
2022-08-03T07:23:02.585Z,34.79
2022-08-03T07:28:05.640Z,35.49
2022-08-03T07:33:08.433Z,37.51
2022-08-03T07:38:11.220Z,38.81
2022-08-03T07:43:14.127Z,39.71
2022-08-03T07:48:17.359Z,40.27
2022-08-03T07:53:20.251Z,41.08
2022-08-03T07:58:24.464Z,41.45
2022-08-03T08:03:27.583Z,40.78
2022-08-03T08:08:50.431Z,39.61
2022-08-03T08:13:53.264Z,37.98
2022-08-03T08:18:56.012Z,36.67
2022-08-03T08:23:58.938Z,35.34
2022-08-03T08:29:01.681Z,34.23
2022-08-03T08:34:05.865Z,33.31
2022-08-03T08:39:08.702Z,32.65
2022-08-03T08:44:11.805Z,32.33
2022-08-03T08:49:23.220Z,32.06
2022-08-03T08:54:26.856Z,32.13
2022-08-03T08:59:48.404Z,32.12
2022-08-03T09:04:54.334Z,32.21
2022-08-03T09:10:11.294Z,32.43
2022-08-03T09:15:22.121Z,32.51
2022-08-03T09:20:26.886Z,32.39
2022-08-03T09:25:33.617Z,32.35
2022-08-03T09:30:38.473Z,32.18
2022-08-03T09:35:54.994Z,32.06
2022-08-03T09:41:01.039Z,31.89
2022-08-03T09:46:07.692Z,31.44
2022-08-03T09:51:13.056Z,31.24
2022-08-03T09:56:46.287Z,31.45
2022-08-03T10:01:49.097Z,31.64
2022-08-03T10:07:24.938Z,31.78
2022-08-03T10:12:29.226Z,31.96
2022-08-03T10:17:32.035Z,31.98
2022-08-03T10:22:36.904Z,32.03
2022-08-03T10:27:42.440Z,32.01
2022-08-03T10:33:02.958Z,31.86
2022-08-03T10:38:12.656Z,31.77
2022-08-03T10:43:23.137Z,31.61
2022-08-03T10:48:27.172Z,31.56
2022-08-03T10:53:55.074Z,31.44
2022-08-03T10:58:59.023Z,31.12
2022-08-03T11:04:10.966Z,30.99
2022-08-03T11:09:17.975Z,30.82
2022-08-03T11:14:22.191Z,30.63
2022-08-03T11:19:57.832Z,30.62
2022-08-03T11:25:02.612Z,30.73
2022-08-03T11:30:29.201Z,30.80
2022-08-03T11:35:43.858Z,30.64
2022-08-03T11:40:48.510Z,30.55
2022-08-03T11:46:07.424Z,30.46
2022-08-03T11:51:25.805Z,30.39
2022-08-03T11:56:30.113Z,30.41
2022-08-03T12:01:33.079Z,30.27
2022-08-03T12:06:55.234Z,30.16
2022-08-03T12:12:00.476Z,29.99
2022-08-03T12:17:04.290Z,30.03
2022-08-03T12:22:08.439Z,30.04
2022-08-03T12:27:11.330Z,29.88
2022-08-03T12:32:15.665Z,29.71
2022-08-03T12:37:22.638Z,29.73
2022-08-03T12:42:35.029Z,29.71
2022-08-03T12:48:00.775Z,29.56
2022-08-03T12:53:07.856Z,29.41
2022-08-03T12:58:33.644Z,29.19
2022-08-03T13:03:57.842Z,28.97
2022-08-03T13:09:08.067Z,29.04
2022-08-03T13:14:16.783Z,29.11
2022-08-03T13:19:23.259Z,29.21
2022-08-03T13:24:26.223Z,29.11
2022-08-03T13:29:29.205Z,28.83
2022-08-03T13:34:32.140Z,28.71
2022-08-03T13:39:35.111Z,28.66
2022-08-03T13:44:59.110Z,28.60
2022-08-03T13:50:03.085Z,28.41
2022-08-03T13:55:07.927Z,28.33
2022-08-03T14:00:11.963Z,28.21
2022-08-03T14:05:14.799Z,28.13
2022-08-03T14:10:19.846Z,28.17
2022-08-03T14:15:22.806Z,28.28
2022-08-03T14:20:36.869Z,28.32
2022-08-03T14:25:43.497Z,28.32
2022-08-03T14:30:55.865Z,28.33
2022-08-03T14:35:58.994Z,28.35
2022-08-03T14:41:01.931Z,28.27
2022-08-03T14:46:04.905Z,28.26
2022-08-03T14:51:07.893Z,28.26
2022-08-03T14:56:11.122Z,28.23
2022-08-03T15:02:04.776Z,28.22
2022-08-03T15:06:37.881Z,28.19
2022-08-03T15:11:40.889Z,28.14
2022-08-03T15:16:44.375Z,28.04
2022-08-03T15:21:47.753Z,28.00
2022-08-03T15:26:52.478Z,27.96
2022-08-03T15:31:55.273Z,27.92
2022-08-03T15:36:58.115Z,27.88
2022-08-03T15:42:00.998Z,28.00
2022-08-03T15:47:03.928Z,28.57
2022-08-03T15:52:06.855Z,28.52
2022-08-03T15:57:09.835Z,28.76
2022-08-03T16:02:13.052Z,28.65
2022-08-03T16:07:16.071Z,28.42
2022-08-03T16:12:18.899Z,28.18
2022-08-03T16:17:23.607Z,27.99
2022-08-03T16:22:27.207Z,27.85
2022-08-03T16:27:55.747Z,27.70
2022-08-03T16:32:53.160Z,27.55
2022-08-03T16:37:57.101Z,27.40
2022-08-03T16:43:00.055Z,27.28
2022-08-03T16:48:05.970Z,27.17
2022-08-03T16:53:10.124Z,27.06
2022-08-03T16:58:19.664Z,26.92
2022-08-03T17:03:42.677Z,26.81
2022-08-03T17:09:10.245Z,26.68
2022-08-03T17:14:14.925Z,26.56
2022-08-03T17:19:18.770Z,26.43
2022-08-03T17:24:28.321Z,26.29
2022-08-03T17:29:35.143Z,26.15
2022-08-03T17:34:38.700Z,26.00
2022-08-03T17:39:59.876Z,25.86
2022-08-03T17:45:03.813Z,25.68
2022-08-03T17:50:24.108Z,25.52
2022-08-03T17:55:56.673Z,25.32
2022-08-03T18:01:59.801Z,25.11
2022-08-03T18:06:55.769Z,24.89
2022-08-03T18:12:05.432Z,24.67
2022-08-03T18:17:15.785Z,24.48
2022-08-03T18:22:22.074Z,24.28
2022-08-03T18:27:45.412Z,24.09
2022-08-03T18:33:00.616Z,23.89
2022-08-03T18:38:04.244Z,23.70
2022-08-03T18:43:14.047Z,23.50
2022-08-03T18:48:40.638Z,23.32
2022-08-03T18:54:06.219Z,23.14
2022-08-03T18:59:14.854Z,22.98
2022-08-03T19:04:25.624Z,22.83
2022-08-03T19:09:35.076Z,22.69
2022-08-03T19:14:45.887Z,22.56
2022-08-03T19:19:51.348Z,22.43
2022-08-03T19:24:58.491Z,22.31
2022-08-03T19:30:11.857Z,22.18
2022-08-03T19:35:52.266Z,22.04
2022-08-03T19:40:50.916Z,21.89
2022-08-03T19:46:06.335Z,21.73
2022-08-03T19:51:12.157Z,21.60
2022-08-03T19:56:15.940Z,21.44
2022-08-03T20:06:43.467Z,21.14
2022-08-03T20:11:48.508Z,20.99
2022-08-03T20:16:51.899Z,20.84
2022-08-03T20:21:54.947Z,20.69
2022-08-03T20:27:00.400Z,20.55
2022-08-03T20:32:03.661Z,20.41
2022-08-03T20:37:09.474Z,20.28
2022-08-03T20:42:15.022Z,20.14
2022-08-03T20:47:27.128Z,20.00
2022-08-03T20:52:34.990Z,19.86
2022-08-03T20:57:53.741Z,19.73
2022-08-03T21:02:56.642Z,19.60
2022-08-03T21:08:07.151Z,19.49
2022-08-03T21:13:10.649Z,21.31
2022-08-03T21:13:25.800Z,19.41
2022-08-03T21:18:36.033Z,19.35
2022-08-03T21:23:49.892Z,19.33
2022-08-03T21:28:55.495Z,19.28
2022-08-03T21:34:02.664Z,19.20
2022-08-03T21:39:08.446Z,19.10
2022-08-03T21:44:11.897Z,18.99
2022-08-03T21:50:06.831Z,18.87
2022-08-03T21:54:43.484Z,18.75
2022-08-03T21:59:54.798Z,18.66
2022-08-03T22:04:58.164Z,18.60
2022-08-03T22:10:02.591Z,18.55
2022-08-03T22:15:09.512Z,18.48
2022-08-03T22:20:17.289Z,18.38
2022-08-03T22:25:24.795Z,18.27
2022-08-03T22:30:29.119Z,18.19
2022-08-03T22:35:47.288Z,18.14
2022-08-03T22:40:52.543Z,18.05
2022-08-03T22:46:09.528Z,17.95
2022-08-03T22:51:15.972Z,17.85
2022-08-03T22:56:19.119Z,17.76
2022-08-03T23:01:26.367Z,17.67
2022-08-03T23:06:38.949Z,17.57
2022-08-03T23:11:45.580Z,17.47
2022-08-03T23:16:50.802Z,17.38
2022-08-03T23:22:03.016Z,17.33
2022-08-03T23:27:09.681Z,17.30
2022-08-03T23:32:13.305Z,17.25
2022-08-03T23:37:17.808Z,17.19
2022-08-03T23:42:21.967Z,17.12
2022-08-03T23:47:25.136Z,17.07
2022-08-03T23:53:04.054Z,17.04
2022-08-03T23:58:28.282Z,17.04
